首页
METAR-TAF:

METAR-TAF

机场 :

格林斯伯勒, 北卡罗来纳州, 美国

纬度: 36-05-51N, 经度: 079-56-37W, 海拔: 282米

当前天气观测

该预报发布于30分钟前的20:54 UTC
风速4节,风向西
温度 31°C
湿度 49%
气压 1014 hPa
能見度: 16.1公里
少量云层高于5000英尺
少量云层高于7000英尺
阴天层高于25000英尺

METAR: KGSO 062054Z 27004KT 10SM FEW050 FEW070 OVC250 31/19 A2993 RMK AO2 SLP121 T03110194 56014

时间: 17:24 (21:24 UTC)

预报

该预报发布于3小时和44分钟前的17:40 UTC
预报有效从06日的 18点(UTC)到 07日的 18点(UTC)
风速5节,风向多变
能見度: 10公里
散云层高于4000英尺
多云层高于25000英尺
从 07日的 0000点(UTC)
风速3节,风向北转西北
能見度: 10公里
多云层高于25000英尺
从 07日的 1200点(UTC)
风速5节,风向北转东北
能見度: 10公里
多云层高于25000英尺

TAF: KGSO 061740Z 0618/0718 VRB05KT P6SM SCT040 BKN250 FM070000 33003KT P6SM BKN250 FM071200 03005KT P6SM BKN250

超过4000个机场的气象观测和天气预报(METAR&TAF报告)。

可查询的气象台以黄色和红色小点在地图上表示。

将鼠标移到小点上方,可查看气象台名称。

然后点击查看天气观测和预报。

如需切换地图:点击带黑十字的绿色按钮放大地图;点击带横线的绿色按钮缩小地图;或者点击绿色箭头查看邻近地区的地图。


METAR-TAF: